Cedar Rapids (CID/KCID)

Map

Destinations

Information

Location
Cedar Rapids, IA
Local Time
22:29 / 10:29 pm
GMT Time
02:29 / 2:29 am
Gates
Unassigned
No FAA reported delays
METAR KCID 280152Z 01004KT 10SM BKN017 OVC026 09/08 A2996 RMK AO2 SLP148 T00890078
TAF KCID 280145Z 2802/2824 36004KT P6SM OVC015 FM280400 01005KT 4SM BR OVC009 FM281000 01005KT 1SM BR OVC004 FM281500 07006KT 5SM BR OVC012
  • No charts available